sensor_id;sensor_type;location;lat;lon;timestamp;pressure;altitude;pressure_sealevel;temperature;humidity
45467;BME280;31212;49.734;8.490;2023-02-11T00:01:45;102598.75;;;-0.12;86.23
45467;BME280;31212;49.734;8.490;2023-02-11T00:04:11;102594.91;;;-0.07;86.23
45467;BME280;31212;49.734;8.490;2023-02-11T00:06:38;102594.78;;;0.02;86.17
45467;BME280;31212;49.734;8.490;2023-02-11T00:09:05;102592.47;;;0.05;85.90
45467;BME280;31212;49.734;8.490;2023-02-11T00:11:32;102597.72;;;0.06;85.97
45467;BME280;31212;49.734;8.490;2023-02-11T00:14:02;102595.41;;;0.09;85.75
45467;BME280;31212;49.734;8.490;2023-02-11T00:16:29;102596.44;;;0.11;85.62
45467;BME280;31212;49.734;8.490;2023-02-11T00:18:58;102600.13;;;0.15;85.49
45467;BME280;31212;49.734;8.490;2023-02-11T00:21:25;102586.31;;;0.13;85.39
45467;BME280;31212;49.734;8.490;2023-02-11T00:23:52;102585.44;;;0.12;85.42
45467;BME280;31212;49.734;8.490;2023-02-11T00:26:22;102585.97;;;0.08;85.54
45467;BME280;31212;49.734;8.490;2023-02-11T00:28:50;102587.13;;;0.02;85.45
45467;BME280;31212;49.734;8.490;2023-02-11T00:31:20;102591.22;;;-0.01;85.62
45467;BME280;31212;49.734;8.490;2023-02-11T00:33:47;102593.63;;;-0.02;85.48
45467;BME280;31212;49.734;8.490;2023-02-11T00:36:16;102593.41;;;-0.05;85.87
45467;BME280;31212;49.734;8.490;2023-02-11T00:38:46;102596.72;;;-0.06;85.78
45467;BME280;31212;49.734;8.490;2023-02-11T00:41:14;102578.59;;;-0.09;85.66
45467;BME280;31212;49.734;8.490;2023-02-11T00:43:42;102576.56;;;-0.13;85.62
45467;BME280;31212;49.734;8.490;2023-02-11T00:46:09;102578.59;;;-0.20;85.82
45467;BME280;31212;49.734;8.490;2023-02-11T00:48:37;102585.50;;;-0.19;85.97
45467;BME280;31212;49.734;8.490;2023-02-11T00:51:04;102592.41;;;-0.28;86.06
45467;BME280;31212;49.734;8.490;2023-02-11T00:53:31;102597.13;;;-0.22;86.05
45467;BME280;31212;49.734;8.490;2023-02-11T00:55:58;102600.06;;;-0.18;86.17
45467;BME280;31212;49.734;8.490;2023-02-11T00:58:26;102604.25;;;-0.18;86.50
45467;BME280;31212;49.734;8.490;2023-02-11T01:00:53;102611.91;;;-0.08;86.44
45467;BME280;31212;49.734;8.490;2023-02-11T01:03:19;102603.09;;;-0.11;86.42
45467;BME280;31212;49.734;8.490;2023-02-11T01:05:48;102600.94;;;-0.07;86.44
45467;BME280;31212;49.734;8.490;2023-02-11T01:08:14;102607.06;;;-0.05;86.40
45467;BME280;31212;49.734;8.490;2023-02-11T01:10:41;102601.31;;;-0.02;86.53
45467;BME280;31212;49.734;8.490;2023-02-11T01:13:08;102606.94;;;0.04;86.53
45467;BME280;31212;49.734;8.490;2023-02-11T01:15:34;102604.22;;;0.03;86.25
45467;BME280;31212;49.734;8.490;2023-02-11T01:18:01;102606.63;;;0.11;86.57
45467;BME280;31212;49.734;8.490;2023-02-11T01:20:29;102599.34;;;0.16;86.50
45467;BME280;31212;49.734;8.490;2023-02-11T01:22:57;102594.50;;;0.19;86.46
45467;BME280;31212;49.734;8.490;2023-02-11T01:25:23;102588.34;;;0.17;86.04
45467;BME280;31212;49.734;8.490;2023-02-11T01:27:50;102582.50;;;0.18;86.16
45467;BME280;31212;49.734;8.490;2023-02-11T01:30:16;102573.16;;;0.19;86.03
45467;BME280;31212;49.734;8.490;2023-02-11T01:32:46;102583.38;;;0.19;85.90
45467;BME280;31212;49.734;8.490;2023-02-11T01:35:12;102574.72;;;0.16;86.17
45467;BME280;31212;49.734;8.490;2023-02-11T01:37:39;102573.78;;;0.16;86.22
45467;BME280;31212;49.734;8.490;2023-02-11T01:40:12;102564.72;;;0.20;86.17
45467;BME280;31212;49.734;8.490;2023-02-11T01:42:39;102567.91;;;0.17;86.39
45467;BME280;31212;49.734;8.490;2023-02-11T01:48:06;102568.78;;;0.28;85.93
45467;BME280;31212;49.734;8.490;2023-02-11T01:50:34;102565.06;;;0.35;86.03
45467;BME280;31212;49.734;8.490;2023-02-11T01:53:02;102551.28;;;0.32;85.54
45467;BME280;31212;49.734;8.490;2023-02-11T01:55:46;102534.41;;;0.35;85.58
45467;BME280;31212;49.734;8.490;2023-02-11T01:58:31;102511.16;;;0.31;85.47
45467;BME280;31212;49.734;8.490;2023-02-11T02:01:03;102507.69;;;0.31;85.37
45467;BME280;31212;49.734;8.490;2023-02-11T02:03:33;102497.47;;;0.31;85.27
45467;BME280;31212;49.734;8.490;2023-02-11T02:06:06;102496.84;;;0.33;85.25
45467;BME280;31212;49.734;8.490;2023-02-11T02:08:39;102495.41;;;0.37;85.09
45467;BME280;31212;49.734;8.490;2023-02-11T02:11:07;102486.34;;;0.41;84.80
45467;BME280;31212;49.734;8.490;2023-02-11T02:13:36;102478.19;;;0.35;84.99
45467;BME280;31212;49.734;8.490;2023-02-11T02:16:05;102474.38;;;0.29;84.62
45467;BME280;31212;49.734;8.490;2023-02-11T02:18:39;102471.59;;;0.26;84.66
45467;BME280;31212;49.734;8.490;2023-02-11T02:21:21;102472.25;;;0.24;84.96
45467;BME280;31212;49.734;8.490;2023-02-11T02:24:21;102466.91;;;0.21;84.87
45467;BME280;31212;49.734;8.490;2023-02-11T02:27:18;102478.75;;;0.20;84.95
45467;BME280;31212;49.734;8.490;2023-02-11T02:32:54;102473.19;;;0.14;84.68
45467;BME280;31212;49.734;8.490;2023-02-11T02:35:29;102476.91;;;0.07;85.35
45467;BME280;31212;49.734;8.490;2023-02-11T02:38:02;102488.53;;;0.04;85.44
45467;BME280;31212;49.734;8.490;2023-02-11T02:40:35;102486.50;;;0.10;85.55
45467;BME280;31212;49.734;8.490;2023-02-11T02:43:03;102471.94;;;0.09;85.46
45467;BME280;31212;49.734;8.490;2023-02-11T02:45:30;102464.91;;;0.06;85.45
45467;BME280;31212;49.734;8.490;2023-02-11T02:47:59;102470.31;;;-0.01;85.30
45467;BME280;31212;49.734;8.490;2023-02-11T02:50:28;102469.94;;;-0.06;85.67
45467;BME280;31212;49.734;8.490;2023-02-11T02:53:06;102474.16;;;-0.06;85.73
45467;BME280;31212;49.734;8.490;2023-02-11T02:55:57;102478.38;;;-0.07;85.95
45467;BME280;31212;49.734;8.490;2023-02-11T02:58:48;102485.66;;;-0.11;86.05
45467;BME280;31212;49.734;8.490;2023-02-11T03:01:27;102489.63;;;-0.15;86.23
45467;BME280;31212;49.734;8.490;2023-02-11T03:04:05;102504.41;;;-0.11;86.33
45467;BME280;31212;49.734;8.490;2023-02-11T03:06:43;102511.31;;;-0.10;86.69
45467;BME280;31212;49.734;8.490;2023-02-11T03:09:15;102512.47;;;-0.06;86.28
45467;BME280;31212;49.734;8.490;2023-02-11T03:11:44;102521.91;;;-0.05;86.49
45467;BME280;31212;49.734;8.490;2023-02-11T03:14:14;102530.31;;;-0.06;86.31
45467;BME280;31212;49.734;8.490;2023-02-11T03:16:42;102538.22;;;-0.03;86.50
45467;BME280;31212;49.734;8.490;2023-02-11T03:19:14;102542.56;;;-0.02;86.51
45467;BME280;31212;49.734;8.490;2023-02-11T03:21:43;102531.53;;;0.09;86.50
45467;BME280;31212;49.734;8.490;2023-02-11T03:24:14;102524.03;;;0.11;86.27
45467;BME280;31212;49.734;8.490;2023-02-11T03:26:43;102504.94;;;0.17;85.91
45467;BME280;31212;49.734;8.490;2023-02-11T03:29:17;102490.66;;;0.20;85.78
45467;BME280;31212;49.734;8.490;2023-02-11T03:31:51;102482.34;;;0.22;85.61
45467;BME280;31212;49.734;8.490;2023-02-11T03:34:26;102480.28;;;0.28;85.39
45467;BME280;31212;49.734;8.490;2023-02-11T03:36:58;102474.69;;;0.22;85.50
45467;BME280;31212;49.734;8.490;2023-02-11T03:39:29;102473.38;;;0.27;85.40
45467;BME280;31212;49.734;8.490;2023-02-11T03:41:59;102477.34;;;0.24;85.32
45467;BME280;31212;49.734;8.490;2023-02-11T03:44:36;102469.69;;;0.24;85.30
45467;BME280;31212;49.734;8.490;2023-02-11T03:47:06;102467.13;;;0.24;85.28
45467;BME280;31212;49.734;8.490;2023-02-11T03:49:37;102462.66;;;0.21;85.32
45467;BME280;31212;49.734;8.490;2023-02-11T03:52:06;102463.69;;;0.23;85.27
45467;BME280;31212;49.734;8.490;2023-02-11T03:54:37;102454.41;;;0.13;85.43
45467;BME280;31212;49.734;8.490;2023-02-11T03:57:05;102466.06;;;0.10;85.59
45467;BME280;31212;49.734;8.490;2023-02-11T03:59:48;102463.25;;;0.07;85.70
45467;BME280;31212;49.734;8.490;2023-02-11T04:02:14;102469.56;;;0.00;85.66
45467;BME280;31212;49.734;8.490;2023-02-11T04:04:42;102472.75;;;-0.03;86.02
45467;BME280;31212;49.734;8.490;2023-02-11T04:07:10;102464.47;;;-0.10;86.01
45467;BME280;31212;49.734;8.490;2023-02-11T04:09:37;102465.88;;;-0.14;86.25
45467;BME280;31212;49.734;8.490;2023-02-11T04:12:03;102458.38;;;-0.23;86.43
45467;BME280;31212;49.734;8.490;2023-02-11T04:14:30;102446.38;;;-0.24;86.55
45467;BME280;31212;49.734;8.490;2023-02-11T04:16:56;102439.25;;;-0.28;86.54
45467;BME280;31212;49.734;8.490;2023-02-11T04:19:23;102431.84;;;-0.25;86.38
45467;BME280;31212;49.734;8.490;2023-02-11T04:21:51;102425.22;;;-0.23;86.68
45467;BME280;31212;49.734;8.490;2023-02-11T04:24:17;102432.06;;;-0.22;86.79
45467;BME280;31212;49.734;8.490;2023-02-11T04:26:44;102425.97;;;-0.24;86.96
45467;BME280;31212;49.734;8.490;2023-02-11T04:29:10;102428.41;;;-0.25;86.84
45467;BME280;31212;49.734;8.490;2023-02-11T04:31:37;102421.69;;;-0.35;87.03
45467;BME280;31212;49.734;8.490;2023-02-11T04:34:03;102435.22;;;-0.36;87.34
45467;BME280;31212;49.734;8.490;2023-02-11T04:36:29;102451.28;;;-0.37;87.09
45467;BME280;31212;49.734;8.490;2023-02-11T04:38:57;102455.22;;;-0.41;87.35
45467;BME280;31212;49.734;8.490;2023-02-11T04:41:24;102465.19;;;-0.44;87.46
45467;BME280;31212;49.734;8.490;2023-02-11T04:43:50;102476.06;;;-0.46;87.49
45467;BME280;31212;49.734;8.490;2023-02-11T04:46:17;102479.88;;;-0.41;87.47
45467;BME280;31212;49.734;8.490;2023-02-11T04:48:43;102484.47;;;-0.37;87.55
45467;BME280;31212;49.734;8.490;2023-02-11T04:51:10;102480.22;;;-0.37;87.40
45467;BME280;31212;49.734;8.490;2023-02-11T04:53:37;102505.00;;;-0.36;87.36
45467;BME280;31212;49.734;8.490;2023-02-11T04:56:05;102503.72;;;-0.30;87.55
45467;BME280;31212;49.734;8.490;2023-02-11T04:58:32;102507.13;;;-0.30;87.66
45467;BME280;31212;49.734;8.490;2023-02-11T05:01:04;102502.03;;;-0.20;87.80
45467;BME280;31212;49.734;8.490;2023-02-11T05:03:31;102500.84;;;-0.13;87.62
45467;BME280;31212;49.734;8.490;2023-02-11T05:05:57;102500.09;;;-0.12;87.31
45467;BME280;31212;49.734;8.490;2023-02-11T05:08:24;102503.66;;;-0.10;87.42
45467;BME280;31212;49.734;8.490;2023-02-11T05:10:50;102510.78;;;-0.06;87.14
45467;BME280;31212;49.734;8.490;2023-02-11T05:13:18;102501.19;;;0.02;87.21
45467;BME280;31212;49.734;8.490;2023-02-11T05:15:45;102482.56;;;0.03;87.00
45467;BME280;31212;49.734;8.490;2023-02-11T05:18:11;102471.16;;;0.10;86.82
45467;BME280;31212;49.734;8.490;2023-02-11T05:20:39;102442.66;;;0.15;86.71
45467;BME280;31212;49.734;8.490;2023-02-11T05:23:06;102431.66;;;0.16;86.41
45467;BME280;31212;49.734;8.490;2023-02-11T05:25:32;102430.00;;;0.17;86.33
45467;BME280;31212;49.734;8.490;2023-02-11T05:27:59;102431.03;;;0.19;86.26
45467;BME280;31212;49.734;8.490;2023-02-11T05:30:27;102420.53;;;0.16;86.19
45467;BME280;31212;49.734;8.490;2023-02-11T05:32:53;102419.13;;;0.20;86.01
45467;BME280;31212;49.734;8.490;2023-02-11T05:35:20;102404.84;;;0.22;85.89
45467;BME280;31212;49.734;8.490;2023-02-11T05:37:46;102404.56;;;0.19;85.89
45467;BME280;31212;49.734;8.490;2023-02-11T05:40:13;102402.13;;;0.20;85.89
45467;BME280;31212;49.734;8.490;2023-02-11T05:42:39;102404.84;;;0.22;85.67
45467;BME280;31212;49.734;8.490;2023-02-11T05:45:07;102412.13;;;0.17;85.82
45467;BME280;31212;49.734;8.490;2023-02-11T05:47:34;102420.66;;;0.17;85.86
45467;BME280;31212;49.734;8.490;2023-02-11T05:50:01;102422.97;;;0.14;85.69
45467;BME280;31212;49.734;8.490;2023-02-11T05:52:27;102417.13;;;0.15;85.87
45467;BME280;31212;49.734;8.490;2023-02-11T05:54:54;102400.66;;;0.12;85.87
45467;BME280;31212;49.734;8.490;2023-02-11T05:57:20;102399.66;;;0.10;85.81
45467;BME280;31212;49.734;8.490;2023-02-11T05:59:47;102404.22;;;0.14;86.11
45467;BME280;31212;49.734;8.490;2023-02-11T06:02:13;102418.91;;;0.16;85.99
45467;BME280;31212;49.734;8.490;2023-02-11T06:04:41;102412.34;;;0.20;86.18
45467;BME280;31212;49.734;8.490;2023-02-11T06:07:08;102424.78;;;0.15;85.98
45467;BME280;31212;49.734;8.490;2023-02-11T06:09:37;102433.44;;;0.17;85.93
45467;BME280;31212;49.734;8.490;2023-02-11T06:12:04;102426.91;;;0.21;85.92
45467;BME280;31212;49.734;8.490;2023-02-11T06:14:31;102418.09;;;0.17;85.83
45467;BME280;31212;49.734;8.490;2023-02-11T06:16:58;102428.22;;;0.16;85.94
45467;BME280;31212;49.734;8.490;2023-02-11T06:19:24;102424.66;;;0.14;85.81
45467;BME280;31212;49.734;8.490;2023-02-11T06:21:52;102420.09;;;0.10;85.90
45467;BME280;31212;49.734;8.490;2023-02-11T06:24:19;102418.41;;;0.10;85.92
45467;BME280;31212;49.734;8.490;2023-02-11T06:26:45;102436.06;;;0.07;86.01
45467;BME280;31212;49.734;8.490;2023-02-11T06:29:12;102443.59;;;0.06;86.12
45467;BME280;31212;49.734;8.490;2023-02-11T06:31:38;102435.28;;;0.08;85.96
45467;BME280;31212;49.734;8.490;2023-02-11T06:34:05;102437.84;;;0.08;85.94
45467;BME280;31212;49.734;8.490;2023-02-11T06:36:32;102434.75;;;0.12;85.96
45467;BME280;31212;49.734;8.490;2023-02-11T06:39:00;102437.31;;;0.12;85.88
45467;BME280;31212;49.734;8.490;2023-02-11T06:41:27;102436.41;;;0.12;85.83
45467;BME280;31212;49.734;8.490;2023-02-11T06:43:53;102432.97;;;0.11;85.79
45467;BME280;31212;49.734;8.490;2023-02-11T06:46:20;102439.88;;;0.12;85.52
45467;BME280;31212;49.734;8.490;2023-02-11T06:48:47;102428.09;;;0.14;85.53
45467;BME280;31212;49.734;8.490;2023-02-11T06:51:14;102428.31;;;0.17;85.50
45467;BME280;31212;49.734;8.490;2023-02-11T06:53:42;102427.44;;;0.17;85.58
45467;BME280;31212;49.734;8.490;2023-02-11T06:56:13;102422.34;;;0.17;85.33
45467;BME280;31212;49.734;8.490;2023-02-11T06:58:40;102425.91;;;0.19;85.34
45467;BME280;31212;49.734;8.490;2023-02-11T07:01:08;102425.25;;;0.22;85.45
45467;BME280;31212;49.734;8.490;2023-02-11T07:03:37;102421.91;;;0.23;85.30
45467;BME280;31212;49.734;8.490;2023-02-11T07:06:06;102416.56;;;0.20;85.27
45467;BME280;31212;49.734;8.490;2023-02-11T07:08:34;102416.81;;;0.23;85.38
45467;BME280;31212;49.734;8.490;2023-02-11T07:11:00;102416.91;;;0.24;85.04
45467;BME280;31212;49.734;8.490;2023-02-11T07:13:28;102410.63;;;0.31;84.95
45467;BME280;31212;49.734;8.490;2023-02-11T07:15:54;102407.91;;;0.40;84.40
45467;BME280;31212;49.734;8.490;2023-02-11T07:18:21;102387.69;;;0.43;84.29
45467;BME280;31212;49.734;8.490;2023-02-11T07:20:47;102372.56;;;0.46;84.05
45467;BME280;31212;49.734;8.490;2023-02-11T07:23:14;102362.84;;;0.52;83.74
45467;BME280;31212;49.734;8.490;2023-02-11T07:25:40;102367.28;;;0.55;83.60
45467;BME280;31212;49.734;8.490;2023-02-11T07:28:07;102362.66;;;0.61;83.46
45467;BME280;31212;49.734;8.490;2023-02-11T07:30:34;102355.53;;;0.69;83.00
45467;BME280;31212;49.734;8.490;2023-02-11T07:33:01;102348.34;;;0.75;82.87
45467;BME280;31212;49.734;8.490;2023-02-11T07:35:27;102332.22;;;0.76;82.54
45467;BME280;31212;49.734;8.490;2023-02-11T07:37:54;102316.75;;;0.74;82.94
45467;BME280;31212;49.734;8.490;2023-02-11T07:40:20;102319.56;;;0.77;82.58
45467;BME280;31212;49.734;8.490;2023-02-11T07:42:47;102332.91;;;0.85;82.20
45467;BME280;31212;49.734;8.490;2023-02-11T07:45:13;102334.56;;;0.96;82.23
45467;BME280;31212;49.734;8.490;2023-02-11T07:47:41;102321.13;;;1.11;81.72
45467;BME280;31212;49.734;8.490;2023-02-11T07:50:08;102311.44;;;1.18;81.54
45467;BME280;31212;49.734;8.490;2023-02-11T07:52:35;102326.44;;;1.38;81.44
45467;BME280;31212;49.734;8.490;2023-02-11T07:55:03;102305.84;;;1.48;80.58
45467;BME280;31212;49.734;8.490;2023-02-11T07:57:29;102287.34;;;1.64;80.50
45467;BME280;31212;49.734;8.490;2023-02-11T07:59:56;102267.50;;;1.73;79.57
45467;BME280;31212;49.734;8.490;2023-02-11T08:02:22;102242.94;;;1.63;79.30
45467;BME280;31212;49.734;8.490;2023-02-11T08:04:50;102239.72;;;1.79;78.79
45467;BME280;31212;49.734;8.490;2023-02-11T08:07:17;102228.19;;;1.98;78.23
45467;BME280;31212;49.734;8.490;2023-02-11T08:09:44;102209.06;;;2.31;78.19
45467;BME280;31212;49.734;8.490;2023-02-11T08:12:10;102177.63;;;2.61;76.67
45467;BME280;31212;49.734;8.490;2023-02-11T08:14:37;102126.19;;;2.86;76.02
45467;BME280;31212;49.734;8.490;2023-02-11T08:17:03;102094.09;;;2.93;74.77
45467;BME280;31212;49.734;8.490;2023-02-11T08:19:30;102062.88;;;3.13;74.45
45467;BME280;31212;49.734;8.490;2023-02-11T08:21:58;102036.94;;;3.39;73.46
45467;BME280;31212;49.734;8.490;2023-02-11T08:24:26;101994.56;;;3.45;72.55
45467;BME280;31212;49.734;8.490;2023-02-11T08:26:52;101968.13;;;3.78;72.02
45467;BME280;31212;49.734;8.490;2023-02-11T08:29:19;101938.44;;;4.14;71.09
45467;BME280;31212;49.734;8.490;2023-02-11T08:31:46;101894.88;;;4.67;69.88
45467;BME280;31212;49.734;8.490;2023-02-11T08:34:14;101822.97;;;4.68;68.71
45467;BME280;31212;49.734;8.490;2023-02-11T08:36:43;101800.88;;;4.90;68.12
45467;BME280;31212;49.734;8.490;2023-02-11T08:39:13;101740.13;;;4.94;66.90
45467;BME280;31212;49.734;8.490;2023-02-11T08:41:40;101727.91;;;4.89;66.48
45467;BME280;31212;49.734;8.490;2023-02-11T08:44:07;101730.00;;;4.97;66.75
45467;BME280;31212;49.734;8.490;2023-02-11T08:46:33;101761.28;;;5.06;66.67
45467;BME280;31212;49.734;8.490;2023-02-11T08:49:00;101726.41;;;5.13;66.39
45467;BME280;31212;49.734;8.490;2023-02-11T08:51:27;101709.94;;;5.27;65.73
45467;BME280;31212;49.734;8.490;2023-02-11T08:54:00;101706.34;;;5.43;65.52
45467;BME280;31212;49.734;8.490;2023-02-11T08:56:42;101667.44;;;6.38;63.81
45467;BME280;31212;49.734;8.490;2023-02-11T08:59:12;101577.38;;;6.43;62.16
45467;BME280;31212;49.734;8.490;2023-02-11T09:01:39;101563.13;;;6.52;61.67
45467;BME280;31212;49.734;8.490;2023-02-11T09:04:05;101571.84;;;6.33;61.81
45467;BME280;31212;49.734;8.490;2023-02-11T09:06:32;101593.25;;;5.88;62.01
45467;BME280;31212;49.734;8.490;2023-02-11T09:08:58;101609.22;;;5.60;62.73
45467;BME280;31212;49.734;8.490;2023-02-11T09:11:27;101651.72;;;5.50;63.77
45467;BME280;31212;49.734;8.490;2023-02-11T09:13:55;101690.41;;;5.52;63.85
45467;BME280;31212;49.734;8.490;2023-02-11T09:16:24;101709.03;;;5.64;63.81
45467;BME280;31212;49.734;8.490;2023-02-11T09:18:51;101718.38;;;5.43;64.29
45467;BME280;31212;49.734;8.490;2023-02-11T09:21:18;101761.84;;;5.36;64.70
45467;BME280;31212;49.734;8.490;2023-02-11T09:23:45;101765.75;;;5.66;64.34
45467;BME280;31212;49.734;8.490;2023-02-11T09:26:15;101742.19;;;6.79;63.19
45467;BME280;31212;49.734;8.490;2023-02-11T09:28:42;101629.13;;;7.64;60.79
45467;BME280;31212;49.734;8.490;2023-02-11T09:31:11;101550.03;;;8.22;59.16
45467;BME280;31212;49.734;8.490;2023-02-11T09:33:39;101484.06;;;8.99;57.66
45467;BME280;31212;49.734;8.490;2023-02-11T09:36:13;101356.09;;;9.25;55.58
45467;BME280;31212;49.734;8.490;2023-02-11T09:38:40;101332.72;;;8.87;55.50
45467;BME280;31212;49.734;8.490;2023-02-11T09:41:22;101342.63;;;9.04;55.28
45467;BME280;31212;49.734;8.490;2023-02-11T09:43:52;101344.34;;;9.40;55.23
45467;BME280;31212;49.734;8.490;2023-02-11T09:46:22;101316.41;;;9.66;54.50
45467;BME280;31212;49.734;8.490;2023-02-11T09:48:51;101284.59;;;9.34;53.91
45467;BME280;31212;49.734;8.490;2023-02-11T09:51:25;101323.44;;;8.96;54.83
45467;BME280;31212;49.734;8.490;2023-02-11T09:53:59;101411.38;;;8.59;56.09
45467;BME280;31212;49.734;8.490;2023-02-11T09:56:30;101420.38;;;8.11;56.67
45467;BME280;31212;49.734;8.490;2023-02-11T09:58:56;101534.31;;;7.88;57.96
45467;BME280;31212;49.734;8.490;2023-02-11T10:01:29;101569.38;;;7.80;58.44
45467;BME280;31212;49.734;8.490;2023-02-11T10:04:03;101598.72;;;7.82;59.22
45467;BME280;31212;49.734;8.490;2023-02-11T10:06:38;101616.03;;;8.11;58.67
45467;BME280;31212;49.734;8.490;2023-02-11T10:09:26;101610.25;;;7.92;58.75
45467;BME280;31212;49.734;8.490;2023-02-11T10:12:08;101641.91;;;7.85;59.11
45467;BME280;31212;49.734;8.490;2023-02-11T10:14:53;101674.06;;;7.93;60.03
45467;BME280;31212;49.734;8.490;2023-02-11T10:17:31;101680.66;;;8.09;59.01
45467;BME280;31212;49.734;8.490;2023-02-11T10:20:11;101617.88;;;7.87;59.26
45467;BME280;31212;49.734;8.490;2023-02-11T10:22:44;101623.19;;;7.92;59.29
45467;BME280;31212;49.734;8.490;2023-02-11T10:25:20;101665.44;;;7.67;59.67
45467;BME280;31212;49.734;8.490;2023-02-11T10:27:48;101691.06;;;7.86;59.57
45467;BME280;31212;49.734;8.490;2023-02-11T10:30:22;101699.13;;;8.20;59.44
45467;BME280;31212;49.734;8.490;2023-02-11T10:32:55;101691.72;;;8.56;59.28
45467;BME280;31212;49.734;8.490;2023-02-11T10:35:25;101643.16;;;8.77;58.40
45467;BME280;31212;49.734;8.490;2023-02-11T10:37:52;101607.78;;;8.77;58.12
45467;BME280;31212;49.734;8.490;2023-02-11T10:40:21;101615.69;;;9.12;57.36
45467;BME280;31212;49.734;8.490;2023-02-11T10:42:50;101575.53;;;9.60;56.54
45467;BME280;31212;49.734;8.490;2023-02-11T10:45:22;101543.06;;;9.74;56.49
45467;BME280;31212;49.734;8.490;2023-02-11T10:47:52;101516.88;;;9.64;56.02
45467;BME280;31212;49.734;8.490;2023-02-11T10:50:22;101525.84;;;9.43;56.67
45467;BME280;31212;49.734;8.490;2023-02-11T10:52:49;101525.66;;;9.70;56.40
45467;BME280;31212;49.734;8.490;2023-02-11T10:55:17;101487.59;;;9.68;55.90
45467;BME280;31212;49.734;8.490;2023-02-11T10:57:51;101470.34;;;9.71;55.78
45467;BME280;31212;49.734;8.490;2023-02-11T11:00:27;101489.59;;;9.45;56.31
45467;BME280;31212;49.734;8.490;2023-02-11T11:02:58;101525.09;;;8.83;57.45
45467;BME280;31212;49.734;8.490;2023-02-11T11:05:29;101618.91;;;9.03;58.12
45467;BME280;31212;49.734;8.490;2023-02-11T11:07:58;101608.88;;;8.85;58.16
45467;BME280;31212;49.734;8.490;2023-02-11T11:10:28;101656.34;;;8.57;58.80
45467;BME280;31212;49.734;8.490;2023-02-11T11:12:55;101692.72;;;8.34;60.01
45467;BME280;31212;49.734;8.490;2023-02-11T11:15:23;101733.78;;;8.25;60.45
45467;BME280;31212;49.734;8.490;2023-02-11T11:20:34;101770.44;;;8.37;60.78
45467;BME280;31212;49.734;8.490;2023-02-11T11:23:15;101786.81;;;8.62;60.88
45467;BME280;31212;49.734;8.490;2023-02-11T11:25:44;101751.84;;;8.23;60.71
45467;BME280;31212;49.734;8.490;2023-02-11T11:28:21;101749.69;;;8.36;60.48
45467;BME280;31212;49.734;8.490;2023-02-11T11:30:48;101776.06;;;8.25;60.65
45467;BME280;31212;49.734;8.490;2023-02-11T11:33:18;101790.66;;;8.23;60.91
45467;BME280;31212;49.734;8.490;2023-02-11T11:35:58;101821.66;;;8.22;61.88
45467;BME280;31212;49.734;8.490;2023-02-11T11:38:26;101849.72;;;8.11;62.22
45467;BME280;31212;49.734;8.490;2023-02-11T11:41:17;101864.25;;;7.85;62.16
45467;BME280;31212;49.734;8.490;2023-02-11T11:43:58;101878.59;;;7.77;62.81
45467;BME280;31212;49.734;8.490;2023-02-11T11:46:28;101919.09;;;7.76;63.42
45467;BME280;31212;49.734;8.490;2023-02-11T11:49:01;101901.53;;;7.90;62.76
45467;BME280;31212;49.734;8.490;2023-02-11T11:51:31;101901.97;;;7.80;63.00
45467;BME280;31212;49.734;8.490;2023-02-11T11:54:00;101928.56;;;7.98;63.53
45467;BME280;31212;49.734;8.490;2023-02-11T11:56:31;101913.97;;;8.00;63.16
45467;BME280;31212;49.734;8.490;2023-02-11T11:59:02;101923.84;;;8.11;63.65
45467;BME280;31212;49.734;8.490;2023-02-11T12:01:40;101922.06;;;8.09;63.69
45467;BME280;31212;49.734;8.490;2023-02-11T12:07:25;101885.28;;;8.17;63.20
45467;BME280;31212;49.734;8.490;2023-02-11T12:10:15;101863.69;;;8.16;62.45
45467;BME280;31212;49.734;8.490;2023-02-11T12:12:48;101863.81;;;8.44;62.00
45467;BME280;31212;49.734;8.490;2023-02-11T12:15:27;101844.66;;;8.38;62.21
45467;BME280;31212;49.734;8.490;2023-02-11T12:18:07;101848.72;;;8.32;62.48
45467;BME280;31212;49.734;8.490;2023-02-11T12:20:48;101885.16;;;8.38;62.63
45467;BME280;31212;49.734;8.490;2023-02-11T12:23:31;101889.50;;;8.39;62.63
45467;BME280;31212;49.734;8.490;2023-02-11T12:26:12;101913.41;;;8.32;63.45
45467;BME280;31212;49.734;8.490;2023-02-11T12:28:48;101933.13;;;8.28;63.67
45467;BME280;31212;49.734;8.490;2023-02-11T12:31:32;101975.22;;;8.24;64.34
45467;BME280;31212;49.734;8.490;2023-02-11T12:34:16;102001.56;;;8.14;64.95
45467;BME280;31212;49.734;8.490;2023-02-11T12:36:55;102031.56;;;8.08;65.26
45467;BME280;31212;49.734;8.490;2023-02-11T12:39:34;102055.72;;;7.88;66.40
45467;BME280;31212;49.734;8.490;2023-02-11T12:45:31;102085.59;;;7.81;66.59
45467;BME280;31212;49.734;8.490;2023-02-11T12:48:12;102114.75;;;7.98;67.16
45467;BME280;31212;49.734;8.490;2023-02-11T12:50:48;102113.19;;;8.02;66.79
45467;BME280;31212;49.734;8.490;2023-02-11T12:53:43;102096.34;;;7.90;66.66
45467;BME280;31212;49.734;8.490;2023-02-11T12:56:19;102115.56;;;7.76;67.49
45467;BME280;31212;49.734;8.490;2023-02-11T12:58:51;102129.78;;;7.66;67.64
45467;BME280;31212;49.734;8.490;2023-02-11T13:01:23;102156.75;;;7.52;68.41
45467;BME280;31212;49.734;8.490;2023-02-11T13:03:55;102204.28;;;7.36;69.61
45467;BME280;31212;49.734;8.490;2023-02-11T13:06:27;102223.94;;;7.32;70.54
45467;BME280;31212;49.734;8.490;2023-02-11T13:08:59;102236.66;;;7.28;70.80
45467;BME280;31212;49.734;8.490;2023-02-11T13:11:29;102259.00;;;7.27;71.14
45467;BME280;31212;49.734;8.490;2023-02-11T13:14:01;102263.72;;;7.36;71.56
45467;BME280;31212;49.734;8.490;2023-02-11T13:16:35;102261.25;;;7.39;71.49
45467;BME280;31212;49.734;8.490;2023-02-11T13:19:13;102264.22;;;7.47;72.22
45467;BME280;31212;49.734;8.490;2023-02-11T13:21:52;102266.25;;;7.54;72.03
45467;BME280;31212;49.734;8.490;2023-02-11T13:24:27;102253.56;;;7.58;72.26
45467;BME280;31212;49.734;8.490;2023-02-11T13:27:03;102239.31;;;7.49;72.17
45467;BME280;31212;49.734;8.490;2023-02-11T13:29:48;102242.84;;;7.51;71.66